This is the latest recevied weather packets stored in our database for station/object HB9TJR-3. If no packets are shown the sender has not sent any weather packets the latest 10 day(s).
| Time | Temp. | Humidity | Pressure | Rain* | Wind** | Luminosity | Snow |
|---|---|---|---|---|---|---|---|
| 1777469735 | 11.11° C | 84% | 866.9 hPa | 0 mm | - | - | - |
| 1777467815 | 11.67° C | 85% | 866.9 hPa | 0 mm | - | - | - |
| 1777466857 | 12.22° C | 83% | 866.9 hPa | 0 mm | - | - | - |
| 1777465895 | 12.22° C | 84% | 866.9 hPa | 0 mm | - | - | - |
| 1777464935 | 12.22° C | 83% | 866.8 hPa | 0 mm | - | - | - |
| 1777463975 | 11.67° C | 85% | 866.8 hPa | 0 mm | - | - | - |
| 1777463016 | 11.67° C | 87% | 866.9 hPa | 0 mm | - | - | - |
| 1777462055 | 12.22° C | 80% | 866.7 hPa | 0 mm | - | - | - |
| 1777461095 | 12.22° C | 78% | 866.6 hPa | 0 mm | - | - | - |
| 1777460136 | 11.67° C | 88% | 866.8 hPa | 0 mm | - | - | - |
| 1777459175 | 10.56° C | 88% | 866.9 hPa | 0 mm | - | - | - |
| 1777458215 | 10° C | 90% | 867 hPa | 0 mm | - | - | - |
| 1777457256 | 10.56° C | 88% | 866.9 hPa | 0 mm | - | - | - |
| 1777456295 | 10.56° C | 88% | 866.8 hPa | 0 mm | - | - | - |
| 1777455336 | 10.56° C | 89% | 866.7 hPa | 0 mm | - | - | - |
| 1777454377 | 10° C | 85% | 866.6 hPa | 0 mm | - | - | - |
| 1777453415 | 10° C | 86% | 866.5 hPa | 0 mm | - | - | - |
| 1777452457 | 10° C | 86% | 866.5 hPa | 0 mm | - | - | - |
| 1777451495 | 10° C | 88% | 866.5 hPa | 0 mm | - | - | - |
| 1777450536 | 8.89° C | 91% | 866.4 hPa | 0 mm | - | - | - |
| 1777449575 | 8.33° C | 91% | 866.4 hPa | 0 mm | - | - | - |
| 1777448616 | 7.78° C | 90% | 866.3 hPa | 0 mm | - | - | - |
| 1777446697 | 6.67° C | 88% | 865.9 hPa | 0 mm | - | - | - |
| 1777445736 | 6.67° C | 88% | 865.9 hPa | 0 mm | - | - | - |
| 1777444775 | 7.22° C | 91% | 865.9 hPa | 0 mm | - | - | - |
* Rain latest hour (hover to see other rain measurements)
** Current wind speed in m/s (hover to see current wind gust speed)